BAW9SM NZAA-YSSY
Flight info
| Callsign | BAW9SM |
|---|---|
| Flight time | 1h 31m |
| Altitude | 25000 |
| Route | OSRA2P BOGUN/M200F450F600 MADEP N774 AKALU/N0562F350 MARLN MARLN5 |
| Aircraft | CONC/H-SDFHIRYWX/C |
Departure
| Time | 2026-04-26 06:51 |
|---|---|
| Airport | Auckland International Airport (NZAA) |
Arrival
| Time | 2026-04-26 08:23 |
|---|---|
| Airport | Sydney Kingsford Smith International Airport (YSSY) |
| Time | Latitude | Longitude | Altitude | Speed | Heading |
|---|---|---|---|---|---|
| 2026-04-26 06:28 | -37.00558 | 174.77714 | 35 ft | 0 kts | 342° |
| 2026-04-26 06:37 | -37.00569 | 174.77718 | 34 ft | 3 kts | 342° |
| 2026-04-26 06:37 | -37.00587 | 174.77725 | 34 ft | 2 kts | 342° |
| 2026-04-26 06:37 | -37.00603 | 174.77731 | 34 ft | 3 kts | 342° |
| 2026-04-26 06:37 | -37.00620 | 174.77738 | 34 ft | 2 kts | 342° |
| 2026-04-26 06:38 | -37.00632 | 174.77741 | 34 ft | 2 kts | 359° |
| 2026-04-26 06:38 | -37.00644 | 174.77737 | 34 ft | 2 kts | 40° |
| 2026-04-26 06:38 | -37.00648 | 174.77730 | 35 ft | 0 kts | 71° |
| 2026-04-26 06:42 | -37.00646 | 174.77738 | 35 ft | 3 kts | 72° |
| 2026-04-26 06:43 | -37.00635 | 174.77781 | 35 ft | 8 kts | 72° |
| 2026-04-26 06:43 | -37.00615 | 174.77863 | 35 ft | 12 kts | 71° |
| 2026-04-26 06:43 | -37.00582 | 174.77982 | 35 ft | 17 kts | 84° |
| 2026-04-26 06:43 | -37.00679 | 174.78055 | 35 ft | 18 kts | 201° |
| 2026-04-26 06:44 | -37.00761 | 174.78011 | 35 ft | 15 kts | 186° |
| 2026-04-26 06:44 | -37.00872 | 174.78054 | 35 ft | 19 kts | 143° |
| 2026-04-26 06:44 | -37.00955 | 174.78209 | 35 ft | 24 kts | 126° |
| 2026-04-26 06:44 | -37.01010 | 174.78257 | 35 ft | 8 kts | 152° |
| 2026-04-26 06:45 | -37.01074 | 174.78299 | 35 ft | 13 kts | 132° |
| 2026-04-26 06:45 | -37.01066 | 174.78425 | 35 ft | 17 kts | 72° |
| 2026-04-26 06:45 | -37.01023 | 174.78587 | 35 ft | 22 kts | 69° |
| 2026-04-26 06:45 | -37.00966 | 174.78782 | 35 ft | 25 kts | 72° |
| 2026-04-26 06:46 | -37.00908 | 174.78999 | 35 ft | 20 kts | 71° |
| 2026-04-26 06:46 | -37.00857 | 174.79173 | 35 ft | 25 kts | 70° |
| 2026-04-26 06:46 | -37.00799 | 174.79382 | 35 ft | 18 kts | 71° |
| 2026-04-26 06:46 | -37.00752 | 174.79558 | 35 ft | 15 kts | 71° |
| 2026-04-26 06:47 | -37.00711 | 174.79704 | 35 ft | 22 kts | 71° |
| 2026-04-26 06:47 | -37.00655 | 174.79909 | 35 ft | 20 kts | 71° |
| 2026-04-26 06:47 | -37.00609 | 174.80075 | 35 ft | 24 kts | 71° |
| 2026-04-26 06:47 | -37.00559 | 174.80256 | 35 ft | 14 kts | 71° |
| 2026-04-26 06:48 | -37.00553 | 174.80276 | 35 ft | 3 kts | 71° |
| 2026-04-26 06:48 | -37.00540 | 174.80322 | 35 ft | 8 kts | 71° |
| 2026-04-26 06:48 | -37.00539 | 174.80408 | 35 ft | 13 kts | 115° |
| 2026-04-26 06:48 | -37.00572 | 174.80459 | 35 ft | 0 kts | 132° |
| 2026-04-26 06:49 | -37.00580 | 174.80470 | 35 ft | 4 kts | 131° |
| 2026-04-26 06:49 | -37.00612 | 174.80507 | 35 ft | 9 kts | 148° |
| 2026-04-26 06:49 | -37.00681 | 174.80519 | 35 ft | 13 kts | 219° |
| 2026-04-26 06:50 | -37.00704 | 174.80457 | 35 ft | 0 kts | 252° |
| 2026-04-26 06:50 | -37.00737 | 174.80316 | 35 ft | 63 kts | 252° |
| 2026-04-26 06:50 | -37.01009 | 174.79336 | 35 ft | 175 kts | 251° |
| 2026-04-26 06:51 | -37.01500 | 174.77591 | 581 ft | 234 kts | 250° |
| 2026-04-26 06:51 | -37.02632 | 174.73634 | 3000 ft | 251 kts | 250° |
| 2026-04-26 06:51 | -37.03229 | 174.71544 | 3897 ft | 257 kts | 250° |
| 2026-04-26 06:52 | -37.03835 | 174.69426 | 4679 ft | 259 kts | 250° |
| 2026-04-26 06:52 | -37.04427 | 174.67275 | 5462 ft | 262 kts | 251° |
| 2026-04-26 06:52 | -37.05007 | 174.65099 | 6244 ft | 265 kts | 251° |
| 2026-04-26 06:52 | -37.05584 | 174.62924 | 7016 ft | 268 kts | 251° |
| 2026-04-26 06:53 | -37.06179 | 174.60692 | 7798 ft | 273 kts | 251° |
| 2026-04-26 06:53 | -37.06794 | 174.58420 | 8582 ft | 277 kts | 250° |
| 2026-04-26 06:53 | -37.07431 | 174.56125 | 9352 ft | 282 kts | 250° |
| 2026-04-26 06:53 | -37.08098 | 174.53733 | 9891 ft | 304 kts | 250° |
| 2026-04-26 06:54 | -37.08819 | 174.51112 | 10295 ft | 332 kts | 250° |
| 2026-04-26 06:54 | -37.09547 | 174.48239 | 10681 ft | 361 kts | 259° |
| 2026-04-26 06:54 | -37.09509 | 174.45003 | 11056 ft | 391 kts | 284° |
| 2026-04-26 06:54 | -37.08376 | 174.41648 | 11458 ft | 447 kts | 298° |
| 2026-04-26 06:55 | -37.06764 | 174.38178 | 11838 ft | 466 kts | 298° |
| 2026-04-26 06:55 | -37.05163 | 174.34600 | 12303 ft | 472 kts | 298° |
| 2026-04-26 06:55 | -37.03577 | 174.30979 | 13365 ft | 477 kts | 297° |
| 2026-04-26 06:55 | -37.01971 | 174.27295 | 14970 ft | 486 kts | 297° |
| 2026-04-26 06:56 | -37.00325 | 174.23524 | 16596 ft | 498 kts | 297° |
| 2026-04-26 06:56 | -36.98634 | 174.19677 | 18190 ft | 510 kts | 297° |
| 2026-04-26 06:56 | -36.96892 | 174.15750 | 19836 ft | 524 kts | 298° |
| 2026-04-26 06:56 | -36.95087 | 174.11733 | 22021 ft | 535 kts | 298° |
| 2026-04-26 06:57 | -36.93209 | 174.07613 | 24552 ft | 556 kts | 298° |
| 2026-04-26 06:57 | -36.91226 | 174.03356 | 26769 ft | 575 kts | 298° |
| 2026-04-26 06:57 | -36.89409 | 173.98873 | 28846 ft | 586 kts | 289° |
| 2026-04-26 06:57 | -36.88193 | 173.93970 | 30328 ft | 597 kts | 282° |
| 2026-04-26 06:58 | -36.87316 | 173.88934 | 31483 ft | 605 kts | 279° |
| 2026-04-26 06:58 | -36.86550 | 173.83710 | 32637 ft | 618 kts | 278° |
| 2026-04-26 06:58 | -36.85824 | 173.78348 | 33796 ft | 636 kts | 278° |
| 2026-04-26 06:58 | -36.85099 | 173.72801 | 35185 ft | 659 kts | 278° |
| 2026-04-26 06:59 | -36.84348 | 173.67006 | 36263 ft | 690 kts | 278° |
| 2026-04-26 06:59 | -36.83563 | 173.60975 | 37326 ft | 719 kts | 279° |
| 2026-04-26 06:59 | -36.82720 | 173.54681 | 38355 ft | 748 kts | 279° |
| 2026-04-26 06:59 | -36.81810 | 173.48236 | 39361 ft | 779 kts | 280° |
| 2026-04-26 07:00 | -36.80811 | 173.41427 | 40341 ft | 813 kts | 281° |
| 2026-04-26 07:00 | -36.79750 | 173.34344 | 41248 ft | 848 kts | 281° |
| 2026-04-26 07:00 | -36.78633 | 173.26962 | 42093 ft | 882 kts | 281° |
| 2026-04-26 07:00 | -36.77468 | 173.19305 | 42874 ft | 915 kts | 281° |
| 2026-04-26 07:01 | -36.76264 | 173.11400 | 43839 ft | 938 kts | 281° |
| 2026-04-26 07:01 | -36.75034 | 173.03315 | 44906 ft | 960 kts | 281° |
| 2026-04-26 07:01 | -36.73783 | 172.95028 | 45921 ft | 983 kts | 281° |
| 2026-04-26 07:01 | -36.72516 | 172.86559 | 46896 ft | 1006 kts | 281° |
| 2026-04-26 07:02 | -36.71224 | 172.77881 | 47841 ft | 1029 kts | 280° |
| 2026-04-26 07:02 | -36.69902 | 172.69023 | 48750 ft | 1051 kts | 281° |
| 2026-04-26 07:02 | -36.68541 | 172.59974 | 49619 ft | 1072 kts | 281° |
| 2026-04-26 07:02 | -36.67145 | 172.50770 | 50365 ft | 1092 kts | 281° |
| 2026-04-26 07:03 | -36.65734 | 172.41550 | 50540 ft | 1100 kts | 281° |
| 2026-04-26 07:03 | -36.64288 | 172.32186 | 50690 ft | 1104 kts | 281° |
| 2026-04-26 07:03 | -36.62823 | 172.22782 | 50840 ft | 1106 kts | 281° |
| 2026-04-26 07:03 | -36.61345 | 172.13368 | 50992 ft | 1109 kts | 281° |
| 2026-04-26 07:04 | -36.59854 | 172.03935 | 51142 ft | 1111 kts | 281° |
| 2026-04-26 07:04 | -36.58351 | 171.94484 | 51294 ft | 1115 kts | 281° |
| 2026-04-26 07:04 | -36.56834 | 171.84999 | 51444 ft | 1119 kts | 281° |
| 2026-04-26 07:04 | -36.55305 | 171.75479 | 51595 ft | 1121 kts | 281° |
| 2026-04-26 07:05 | -36.53771 | 171.65975 | 51746 ft | 1122 kts | 281° |
| 2026-04-26 07:05 | -36.52233 | 171.56447 | 51896 ft | 1122 kts | 281° |
| 2026-04-26 07:05 | -36.50737 | 171.46909 | 52047 ft | 1123 kts | 281° |
| 2026-04-26 07:05 | -36.49288 | 171.37343 | 52198 ft | 1125 kts | 280° |
| 2026-04-26 07:06 | -36.47902 | 171.27882 | 52347 ft | 1125 kts | 280° |
| 2026-04-26 07:06 | -36.46545 | 171.18301 | 52498 ft | 1127 kts | 279° |
| 2026-04-26 07:06 | -36.45227 | 171.08675 | 52648 ft | 1128 kts | 279° |
| 2026-04-26 07:06 | -36.43959 | 170.99075 | 52799 ft | 1129 kts | 279° |
| 2026-04-26 07:07 | -36.42727 | 170.89421 | 52950 ft | 1130 kts | 278° |
| 2026-04-26 07:07 | -36.41541 | 170.79775 | 53100 ft | 1131 kts | 278° |
| 2026-04-26 07:07 | -36.40398 | 170.70114 | 53251 ft | 1132 kts | 278° |
| 2026-04-26 07:07 | -36.39299 | 170.60447 | 53402 ft | 1133 kts | 278° |
| 2026-04-26 07:08 | -36.38242 | 170.50751 | 53553 ft | 1135 kts | 277° |
| 2026-04-26 07:08 | -36.37226 | 170.41030 | 53703 ft | 1135 kts | 277° |
| 2026-04-26 07:08 | -36.36250 | 170.31292 | 53854 ft | 1136 kts | 277° |
| 2026-04-26 07:08 | -36.35320 | 170.21557 | 54004 ft | 1136 kts | 276° |
| 2026-04-26 07:09 | -36.34438 | 170.11818 | 54155 ft | 1137 kts | 276° |
| 2026-04-26 07:09 | -36.33636 | 170.02122 | 54304 ft | 1137 kts | 275° |
| 2026-04-26 07:09 | -36.32903 | 169.92370 | 54455 ft | 1138 kts | 275° |
| 2026-04-26 07:09 | -36.32217 | 169.82506 | 54607 ft | 1138 kts | 275° |
| 2026-04-26 07:10 | -36.30333 | 169.53126 | 55059 ft | 1141 kts | 274° |
| 2026-04-26 07:11 | -36.29081 | 169.33616 | 55359 ft | 1143 kts | 275° |
| 2026-04-26 07:11 | -36.28405 | 169.23783 | 55509 ft | 1144 kts | 275° |
| 2026-04-26 07:11 | -36.27696 | 169.13959 | 55659 ft | 1145 kts | 275° |
| 2026-04-26 07:11 | -36.26959 | 169.04128 | 55810 ft | 1145 kts | 275° |
| 2026-04-26 07:12 | -36.26198 | 168.94309 | 55961 ft | 1146 kts | 275° |
| 2026-04-26 07:12 | -36.25417 | 168.84482 | 56111 ft | 1146 kts | 275° |
| 2026-04-26 07:12 | -36.24621 | 168.74665 | 56262 ft | 1145 kts | 275° |
| 2026-04-26 07:12 | -36.23814 | 168.64852 | 56413 ft | 1144 kts | 276° |
| 2026-04-26 07:13 | -36.22999 | 168.55050 | 56563 ft | 1144 kts | 276° |
| 2026-04-26 07:13 | -36.22177 | 168.45245 | 56714 ft | 1143 kts | 276° |
| 2026-04-26 07:13 | -36.21360 | 168.35557 | 56863 ft | 1142 kts | 276° |
| 2026-04-26 07:13 | -36.20534 | 168.25780 | 57011 ft | 1139 kts | 276° |
| 2026-04-26 07:14 | -36.19707 | 168.16020 | 57121 ft | 1135 kts | 276° |
| 2026-04-26 07:14 | -36.18061 | 167.96633 | 57251 ft | 1135 kts | 276° |
| 2026-04-26 07:15 | -36.16432 | 167.77608 | 57357 ft | 1135 kts | 276° |
| 2026-04-26 07:15 | -36.14697 | 167.57734 | 57452 ft | 1135 kts | 276° |
| 2026-04-26 07:16 | -36.12973 | 167.38404 | 57528 ft | 1135 kts | 276° |
| 2026-04-26 07:16 | -36.11209 | 167.19049 | 57592 ft | 1135 kts | 276° |
| 2026-04-26 07:17 | -36.09408 | 166.99697 | 57651 ft | 1135 kts | 276° |
| 2026-04-26 07:17 | -36.07573 | 166.80392 | 57700 ft | 1135 kts | 276° |
| 2026-04-26 07:18 | -36.05690 | 166.60910 | 57750 ft | 1135 kts | 277° |
| 2026-04-26 07:18 | -36.03794 | 166.41564 | 57795 ft | 1135 kts | 277° |
| 2026-04-26 07:19 | -36.01871 | 166.22199 | 57837 ft | 1135 kts | 277° |
| 2026-04-26 07:19 | -35.99920 | 166.02870 | 57875 ft | 1135 kts | 277° |
| 2026-04-26 07:20 | -35.97934 | 165.83517 | 57912 ft | 1134 kts | 277° |
| 2026-04-26 07:20 | -35.95916 | 165.64198 | 57946 ft | 1134 kts | 277° |
| 2026-04-26 07:21 | -35.93863 | 165.44868 | 57976 ft | 1135 kts | 277° |
| 2026-04-26 07:21 | -35.91777 | 165.25558 | 58005 ft | 1136 kts | 277° |
| 2026-04-26 07:22 | -35.89673 | 165.06369 | 58027 ft | 1137 kts | 278° |
| 2026-04-26 07:22 | -35.87524 | 164.87048 | 58048 ft | 1138 kts | 278° |
| 2026-04-26 07:23 | -35.85338 | 164.67685 | 58066 ft | 1139 kts | 278° |
| 2026-04-26 07:23 | -35.83120 | 164.48307 | 58085 ft | 1140 kts | 278° |
| 2026-04-26 07:24 | -35.80874 | 164.28973 | 58107 ft | 1141 kts | 278° |
| 2026-04-26 07:24 | -35.78606 | 164.09723 | 58125 ft | 1142 kts | 278° |
| 2026-04-26 07:25 | -35.76294 | 163.90374 | 58147 ft | 1142 kts | 278° |
| 2026-04-26 07:25 | -35.73923 | 163.71032 | 58169 ft | 1142 kts | 278° |
| 2026-04-26 07:26 | -35.71495 | 163.51670 | 58192 ft | 1142 kts | 278° |
| 2026-04-26 07:26 | -35.69083 | 163.32356 | 58217 ft | 1142 kts | 278° |
| 2026-04-26 07:27 | -35.66690 | 163.13090 | 58243 ft | 1143 kts | 278° |
| 2026-04-26 07:27 | -35.64257 | 162.93749 | 58269 ft | 1143 kts | 279° |
| 2026-04-26 07:28 | -35.61779 | 162.74443 | 58296 ft | 1143 kts | 279° |
| 2026-04-26 07:28 | -35.59266 | 162.55261 | 58324 ft | 1144 kts | 279° |
| 2026-04-26 07:29 | -35.56696 | 162.35981 | 58353 ft | 1144 kts | 279° |
| 2026-04-26 07:29 | -35.54085 | 162.16686 | 58382 ft | 1144 kts | 279° |
| 2026-04-26 07:30 | -35.51447 | 161.97418 | 58412 ft | 1144 kts | 279° |
| 2026-04-26 07:30 | -35.48781 | 161.78150 | 58443 ft | 1145 kts | 279° |
| 2026-04-26 07:31 | -35.46545 | 161.62132 | 58470 ft | 1145 kts | 279° |
| 2026-04-26 07:31 | -35.43829 | 161.42858 | 58501 ft | 1145 kts | 279° |
| 2026-04-26 07:32 | -35.41083 | 161.23597 | 58533 ft | 1145 kts | 280° |
| 2026-04-26 07:32 | -35.38326 | 161.04495 | 58562 ft | 1145 kts | 280° |
| 2026-04-26 07:33 | -35.35518 | 160.85269 | 58592 ft | 1145 kts | 280° |
| 2026-04-26 07:33 | -35.32671 | 160.66016 | 58623 ft | 1146 kts | 280° |
| 2026-04-26 07:34 | -35.29799 | 160.46818 | 58653 ft | 1146 kts | 280° |
| 2026-04-26 07:34 | -35.26898 | 160.27638 | 58684 ft | 1146 kts | 280° |
| 2026-04-26 07:35 | -35.23982 | 160.08572 | 58714 ft | 1146 kts | 281° |
| 2026-04-26 07:35 | -35.21020 | 159.89404 | 58744 ft | 1146 kts | 281° |
| 2026-04-26 07:36 | -35.18027 | 159.70252 | 58751 ft | 1146 kts | 281° |
| 2026-04-26 07:36 | -35.15008 | 159.51133 | 58752 ft | 1146 kts | 281° |
| 2026-04-26 07:37 | -35.11950 | 159.31975 | 58753 ft | 1146 kts | 281° |
| 2026-04-26 07:37 | -35.08870 | 159.12883 | 58753 ft | 1146 kts | 281° |
| 2026-04-26 07:38 | -35.05759 | 158.93802 | 58762 ft | 1146 kts | 281° |
| 2026-04-26 07:38 | -35.02629 | 158.74798 | 58766 ft | 1145 kts | 281° |
| 2026-04-26 07:39 | -34.99464 | 158.55782 | 58767 ft | 1144 kts | 281° |
| 2026-04-26 07:39 | -34.96269 | 158.36773 | 58767 ft | 1144 kts | 282° |
| 2026-04-26 07:40 | -34.93042 | 158.17762 | 58767 ft | 1145 kts | 282° |
| 2026-04-26 07:40 | -34.89801 | 157.98860 | 58768 ft | 1145 kts | 282° |
| 2026-04-26 07:41 | -34.86506 | 157.79830 | 58768 ft | 1146 kts | 282° |
| 2026-04-26 07:41 | -34.83187 | 157.60847 | 58768 ft | 1145 kts | 282° |
| 2026-04-26 07:42 | -34.79840 | 157.41891 | 58768 ft | 1144 kts | 282° |
| 2026-04-26 07:42 | -34.76490 | 157.23099 | 58768 ft | 1143 kts | 282° |
| 2026-04-26 07:43 | -34.73092 | 157.04213 | 58769 ft | 1142 kts | 282° |
| 2026-04-26 07:43 | -34.69663 | 156.85334 | 58768 ft | 1141 kts | 282° |
| 2026-04-26 07:44 | -34.66214 | 156.66515 | 58769 ft | 1141 kts | 282° |
| 2026-04-26 07:44 | -34.62736 | 156.47712 | 58769 ft | 1140 kts | 282° |
| 2026-04-26 07:45 | -34.59257 | 156.29074 | 58769 ft | 1140 kts | 283° |
| 2026-04-26 07:45 | -34.55725 | 156.10318 | 58769 ft | 1139 kts | 283° |
| 2026-04-26 07:45 | -34.53971 | 156.01071 | 58763 ft | 1110 kts | 283° |
| 2026-04-26 07:46 | -34.52258 | 155.92083 | 58765 ft | 1081 kts | 283° |
| 2026-04-26 07:46 | -34.50577 | 155.83304 | 58766 ft | 1053 kts | 283° |
| 2026-04-26 07:46 | -34.48937 | 155.74774 | 58767 ft | 1026 kts | 283° |
| 2026-04-26 07:46 | -34.47343 | 155.66444 | 58768 ft | 999 kts | 282° |
| 2026-04-26 07:47 | -34.45852 | 155.58342 | 58769 ft | 972 kts | 282° |
| 2026-04-26 07:47 | -34.44449 | 155.50432 | 58769 ft | 944 kts | 282° |
| 2026-04-26 07:47 | -34.43135 | 155.42767 | 58687 ft | 918 kts | 281° |
| 2026-04-26 07:47 | -34.41889 | 155.35275 | 58240 ft | 899 kts | 281° |
| 2026-04-26 07:48 | -34.40695 | 155.27884 | 57131 ft | 885 kts | 281° |
| 2026-04-26 07:48 | -34.39561 | 155.20634 | 56220 ft | 869 kts | 280° |
| 2026-04-26 07:48 | -34.38492 | 155.13586 | 55367 ft | 853 kts | 280° |
| 2026-04-26 07:48 | -34.37465 | 155.06589 | 54543 ft | 837 kts | 279° |
| 2026-04-26 07:49 | -34.36486 | 154.99706 | 53657 ft | 820 kts | 279° |
| 2026-04-26 07:49 | -34.35558 | 154.92961 | 52747 ft | 804 kts | 279° |
| 2026-04-26 07:49 | -34.34675 | 154.86338 | 51836 ft | 788 kts | 278° |
| 2026-04-26 07:50 | -34.33059 | 154.73486 | 50055 ft | 756 kts | 277° |
| 2026-04-26 07:50 | -34.32343 | 154.67244 | 49179 ft | 742 kts | 277° |
| 2026-04-26 07:50 | -34.31685 | 154.61108 | 48301 ft | 728 kts | 276° |
| 2026-04-26 07:50 | -34.31066 | 154.55076 | 47378 ft | 716 kts | 276° |
| 2026-04-26 07:51 | -34.30471 | 154.49144 | 46480 ft | 704 kts | 276° |
| 2026-04-26 07:51 | -34.29889 | 154.43307 | 45608 ft | 693 kts | 276° |
| 2026-04-26 07:51 | -34.29306 | 154.37566 | 44769 ft | 682 kts | 277° |
| 2026-04-26 07:51 | -34.28721 | 154.31992 | 43956 ft | 672 kts | 277° |
| 2026-04-26 07:52 | -34.28118 | 154.26431 | 43123 ft | 663 kts | 277° |
| 2026-04-26 07:52 | -34.27510 | 154.20937 | 42270 ft | 655 kts | 277° |
| 2026-04-26 07:52 | -34.26902 | 154.15509 | 41475 ft | 647 kts | 277° |
| 2026-04-26 07:52 | -34.26297 | 154.10145 | 40678 ft | 640 kts | 277° |
| 2026-04-26 07:53 | -34.25694 | 154.04816 | 39832 ft | 635 kts | 277° |
| 2026-04-26 07:53 | -34.25101 | 153.99558 | 38991 ft | 629 kts | 277° |
| 2026-04-26 07:53 | -34.24522 | 153.94354 | 38085 ft | 620 kts | 276° |
| 2026-04-26 07:53 | -34.23952 | 153.89216 | 37008 ft | 611 kts | 276° |
| 2026-04-26 07:54 | -34.23386 | 153.84165 | 35880 ft | 602 kts | 276° |
| 2026-04-26 07:54 | -34.22822 | 153.79188 | 34861 ft | 594 kts | 276° |
| 2026-04-26 07:54 | -34.22258 | 153.74275 | 34045 ft | 588 kts | 276° |
| 2026-04-26 07:54 | -34.21695 | 153.69392 | 33367 ft | 584 kts | 277° |
| 2026-04-26 07:55 | -34.21140 | 153.64615 | 32901 ft | 580 kts | 277° |
| 2026-04-26 07:55 | -34.20579 | 153.59800 | 32770 ft | 578 kts | 277° |
| 2026-04-26 07:55 | -34.19460 | 153.50192 | 32619 ft | 576 kts | 277° |
| 2026-04-26 07:56 | -34.18350 | 153.40707 | 32247 ft | 569 kts | 277° |
| 2026-04-26 07:56 | -34.17236 | 153.31230 | 32077 ft | 569 kts | 277° |
| 2026-04-26 07:57 | -34.16676 | 153.26498 | 31856 ft | 569 kts | 277° |
| 2026-04-26 07:57 | -34.16117 | 153.21809 | 30990 ft | 561 kts | 277° |
| 2026-04-26 07:57 | -34.15561 | 153.17157 | 29846 ft | 557 kts | 278° |
| 2026-04-26 07:57 | -34.15007 | 153.12541 | 29141 ft | 553 kts | 278° |
| 2026-04-26 07:58 | -34.14461 | 153.07986 | 28501 ft | 543 kts | 278° |
| 2026-04-26 07:58 | -34.13930 | 153.03569 | 27849 ft | 536 kts | 278° |
| 2026-04-26 07:58 | -34.13395 | 152.99136 | 27185 ft | 531 kts | 278° |
| 2026-04-26 07:58 | -34.12863 | 152.94753 | 26540 ft | 526 kts | 278° |
| 2026-04-26 07:59 | -34.12328 | 152.90347 | 26184 ft | 543 kts | 278° |
| 2026-04-26 07:59 | -34.11773 | 152.85768 | 25850 ft | 548 kts | 278° |
| 2026-04-26 07:59 | -34.11226 | 152.81234 | 25515 ft | 546 kts | 278° |
| 2026-04-26 07:59 | -34.10681 | 152.76702 | 25108 ft | 543 kts | 278° |
| 2026-04-26 08:00 | -34.10137 | 152.72198 | 24698 ft | 540 kts | 278° |
| 2026-04-26 08:00 | -34.09593 | 152.67722 | 24288 ft | 536 kts | 278° |
| 2026-04-26 08:00 | -34.09051 | 152.63276 | 23879 ft | 534 kts | 278° |
| 2026-04-26 08:00 | -34.08519 | 152.58848 | 23469 ft | 532 kts | 278° |
| 2026-04-26 08:01 | -34.08022 | 152.54444 | 23060 ft | 529 kts | 277° |
| 2026-04-26 08:01 | -34.07574 | 152.50111 | 22655 ft | 525 kts | 276° |
| 2026-04-26 08:01 | -34.07166 | 152.45752 | 22246 ft | 522 kts | 276° |
| 2026-04-26 08:01 | -34.06782 | 152.41415 | 21766 ft | 518 kts | 276° |
| 2026-04-26 08:02 | -34.06409 | 152.37101 | 21242 ft | 514 kts | 276° |
| 2026-04-26 08:02 | -34.06033 | 152.32825 | 20717 ft | 511 kts | 276° |
| 2026-04-26 08:02 | -34.05645 | 152.28585 | 20017 ft | 506 kts | 276° |
| 2026-04-26 08:02 | -34.05248 | 152.24384 | 19129 ft | 504 kts | 276° |
| 2026-04-26 08:03 | -34.04845 | 152.20197 | 18233 ft | 500 kts | 276° |
| 2026-04-26 08:03 | -34.04444 | 152.16040 | 17478 ft | 494 kts | 276° |
| 2026-04-26 08:03 | -34.04056 | 152.12027 | 16947 ft | 484 kts | 276° |
| 2026-04-26 08:03 | -34.03672 | 152.08033 | 16413 ft | 473 kts | 276° |
| 2026-04-26 08:04 | -34.03291 | 152.04134 | 15880 ft | 463 kts | 277° |
| 2026-04-26 08:04 | -34.02904 | 152.00322 | 15346 ft | 453 kts | 277° |
| 2026-04-26 08:04 | -34.02512 | 151.96586 | 14752 ft | 445 kts | 277° |
| 2026-04-26 08:04 | -34.02117 | 151.92877 | 13874 ft | 445 kts | 277° |
| 2026-04-26 08:05 | -34.01723 | 151.89200 | 13219 ft | 439 kts | 277° |
| 2026-04-26 08:05 | -34.01335 | 151.85565 | 12556 ft | 434 kts | 277° |
| 2026-04-26 08:05 | -34.00953 | 151.81969 | 11892 ft | 430 kts | 277° |
| 2026-04-26 08:05 | -34.00579 | 151.78412 | 11191 ft | 426 kts | 277° |
| 2026-04-26 08:06 | -34.00221 | 151.74928 | 10462 ft | 424 kts | 277° |
| 2026-04-26 08:06 | -33.99902 | 151.71680 | 9795 ft | 421 kts | 277° |
| 2026-04-26 08:06 | -33.99566 | 151.68176 | 9061 ft | 419 kts | 277° |
| 2026-04-26 08:07 | -33.99233 | 151.64694 | 8384 ft | 416 kts | 277° |
| 2026-04-26 08:07 | -33.98896 | 151.61255 | 7769 ft | 411 kts | 277° |
| 2026-04-26 08:07 | -33.98557 | 151.57856 | 7201 ft | 405 kts | 277° |
| 2026-04-26 08:07 | -33.98208 | 151.54547 | 6990 ft | 388 kts | 278° |
| 2026-04-26 08:08 | -33.97864 | 151.51399 | 6983 ft | 369 kts | 278° |
| 2026-04-26 08:08 | -33.97532 | 151.48411 | 6985 ft | 348 kts | 278° |
| 2026-04-26 08:08 | -33.97224 | 151.45646 | 6985 ft | 318 kts | 278° |
| 2026-04-26 08:08 | -33.96943 | 151.43113 | 6982 ft | 291 kts | 278° |
| 2026-04-26 08:09 | -33.96683 | 151.40726 | 6988 ft | 285 kts | 278° |
| 2026-04-26 08:09 | -33.96428 | 151.38383 | 6992 ft | 285 kts | 278° |
| 2026-04-26 08:09 | -33.96175 | 151.36012 | 6994 ft | 285 kts | 277° |
| 2026-04-26 08:09 | -33.95935 | 151.33642 | 6994 ft | 285 kts | 277° |
| 2026-04-26 08:10 | -33.95700 | 151.31267 | 6994 ft | 285 kts | 277° |
| 2026-04-26 08:10 | -33.95461 | 151.28894 | 6994 ft | 285 kts | 277° |
| 2026-04-26 08:10 | -33.95218 | 151.26524 | 6994 ft | 285 kts | 277° |
| 2026-04-26 08:10 | -33.94974 | 151.24152 | 6994 ft | 285 kts | 277° |
| 2026-04-26 08:11 | -33.94729 | 151.21785 | 6994 ft | 285 kts | 277° |
| 2026-04-26 08:11 | -33.94485 | 151.19417 | 6994 ft | 285 kts | 277° |
| 2026-04-26 08:11 | -33.94322 | 151.17041 | 6981 ft | 285 kts | 262° |
| 2026-04-26 08:11 | -33.95037 | 151.14844 | 6981 ft | 286 kts | 229° |
| 2026-04-26 08:12 | -33.96509 | 151.13298 | 7004 ft | 285 kts | 216° |
| 2026-04-26 08:12 | -33.98131 | 151.11910 | 6911 ft | 285 kts | 214° |
| 2026-04-26 08:12 | -33.99766 | 151.10552 | 6618 ft | 284 kts | 214° |
| 2026-04-26 08:12 | -34.01387 | 151.09223 | 6416 ft | 282 kts | 214° |
| 2026-04-26 08:13 | -34.03010 | 151.07904 | 6046 ft | 280 kts | 214° |
| 2026-04-26 08:13 | -34.04622 | 151.06597 | 5670 ft | 278 kts | 214° |
| 2026-04-26 08:13 | -34.06226 | 151.05298 | 5294 ft | 277 kts | 214° |
| 2026-04-26 08:13 | -34.07897 | 151.04228 | 4901 ft | 276 kts | 191° |
| 2026-04-26 08:14 | -34.09789 | 151.04294 | 4554 ft | 274 kts | 166° |
| 2026-04-26 08:14 | -34.11643 | 151.04852 | 4313 ft | 274 kts | 164° |
| 2026-04-26 08:14 | -34.13479 | 151.05453 | 4064 ft | 273 kts | 164° |
| 2026-04-26 08:14 | -34.15312 | 151.06057 | 3880 ft | 273 kts | 164° |
| 2026-04-26 08:15 | -34.17144 | 151.06662 | 3754 ft | 272 kts | 164° |
| 2026-04-26 08:15 | -34.18969 | 151.07277 | 3627 ft | 272 kts | 159° |
| 2026-04-26 08:15 | -34.20494 | 151.08561 | 3476 ft | 270 kts | 124° |
| 2026-04-26 08:15 | -34.21246 | 151.10608 | 3366 ft | 267 kts | 105° |
| 2026-04-26 08:16 | -34.21768 | 151.12756 | 3242 ft | 262 kts | 105° |
| 2026-04-26 08:16 | -34.22259 | 151.14799 | 3103 ft | 246 kts | 105° |
| 2026-04-26 08:16 | -34.22575 | 151.16107 | 3019 ft | 244 kts | 104° |
| 2026-04-26 08:16 | -34.22866 | 151.18758 | 2829 ft | 241 kts | 72° |
| 2026-04-26 08:17 | -34.21990 | 151.20423 | 2704 ft | 237 kts | 38° |
| 2026-04-26 08:17 | -34.20671 | 151.21609 | 2629 ft | 236 kts | 34° |
| 2026-04-26 08:17 | -34.19319 | 151.22737 | 2639 ft | 233 kts | 30° |
| 2026-04-26 08:17 | -34.18357 | 151.23189 | 2618 ft | 218 kts | 5° |
| 2026-04-26 08:18 | -34.16854 | 151.23211 | 2647 ft | 215 kts | 355° |
| 2026-04-26 08:18 | -34.15367 | 151.22968 | 2651 ft | 215 kts | 351° |
| 2026-04-26 08:18 | -34.13897 | 151.22620 | 2651 ft | 216 kts | 348° |
| 2026-04-26 08:18 | -34.12432 | 151.22232 | 2655 ft | 215 kts | 348° |
| 2026-04-26 08:19 | -34.10964 | 151.21847 | 2654 ft | 216 kts | 349° |
| 2026-04-26 08:19 | -34.09528 | 151.21473 | 2593 ft | 200 kts | 349° |
| 2026-04-26 08:19 | -34.08196 | 151.21126 | 2367 ft | 194 kts | 349° |
| 2026-04-26 08:19 | -34.06880 | 151.20784 | 2114 ft | 193 kts | 349° |
| 2026-04-26 08:20 | -34.05573 | 151.20444 | 1859 ft | 191 kts | 349° |
| 2026-04-26 08:20 | -34.04294 | 151.20111 | 1609 ft | 190 kts | 349° |
| 2026-04-26 08:20 | -34.03049 | 151.19786 | 1362 ft | 171 kts | 350° |
| 2026-04-26 08:20 | -34.01917 | 151.19492 | 1145 ft | 164 kts | 350° |
| 2026-04-26 08:21 | -34.00807 | 151.19204 | 928 ft | 163 kts | 350° |
| 2026-04-26 08:21 | -33.99703 | 151.18917 | 712 ft | 162 kts | 350° |
| 2026-04-26 08:21 | -33.98603 | 151.18632 | 498 ft | 162 kts | 350° |
| 2026-04-26 08:21 | -33.97504 | 151.18346 | 283 ft | 161 kts | 350° |
| 2026-04-26 08:22 | -33.96409 | 151.18062 | 73 ft | 161 kts | 350° |
| 2026-04-26 08:22 | -33.95333 | 151.17790 | 33 ft | 149 kts | 346° |
| 2026-04-26 08:22 | -33.94494 | 151.17562 | 33 ft | 113 kts | 348° |
| 2026-04-26 08:22 | -33.93826 | 151.17389 | 33 ft | 64 kts | 349° |
| 2026-04-26 08:23 | -33.93502 | 151.17307 | 33 ft | 18 kts | 346° |
| 2026-04-26 08:23 | -33.93435 | 151.17224 | 33 ft | 12 kts | 278° |
| 2026-04-26 08:23 | -33.93438 | 151.17171 | 33 ft | 0 kts | 260° |
| 2026-04-26 08:24 | -33.93438 | 151.17168 | 33 ft | 2 kts | 260° |
| 2026-04-26 08:24 | -33.93450 | 151.17130 | 33 ft | 8 kts | 233° |
| 2026-04-26 08:24 | -33.93493 | 151.17058 | 33 ft | 14 kts | 246° |
| 2026-04-26 08:25 | -33.93513 | 151.16969 | 33 ft | 13 kts | 258° |
| 2026-04-26 08:25 | -33.93536 | 151.16876 | 33 ft | 13 kts | 244° |
| 2026-04-26 08:25 | -33.93562 | 151.16821 | 33 ft | 0 kts | 237° |